createdAt,value
2023-04-17T00:01:32.807Z,38.54
2023-04-17T00:03:59.488Z,38.45
2023-04-17T00:06:27.405Z,38.29
2023-04-17T00:08:54.070Z,38.52
2023-04-17T00:11:21.360Z,38.65
2023-04-17T00:13:48.059Z,38.50
2023-04-17T00:16:14.730Z,38.26
2023-04-17T00:18:41.350Z,38.56
2023-04-17T00:21:08.031Z,38.38
2023-04-17T00:23:34.579Z,38.48
2023-04-17T00:26:01.324Z,38.33
2023-04-17T00:28:27.986Z,38.52
2023-04-17T00:30:54.744Z,38.62
2023-04-17T00:33:21.931Z,38.24
2023-04-17T00:35:48.614Z,38.31
2023-04-17T00:38:15.685Z,38.37
2023-04-17T00:40:42.731Z,38.49
2023-04-17T00:43:09.438Z,38.16
2023-04-17T00:45:36.418Z,38.38
2023-04-17T00:48:04.981Z,38.38
2023-04-17T00:50:31.789Z,38.25
2023-04-17T00:52:58.618Z,38.42
2023-04-17T00:55:26.876Z,38.03
2023-04-17T00:57:53.892Z,38.38
2023-04-17T01:00:20.807Z,38.27
2023-04-17T01:02:47.631Z,38.09
2023-04-17T01:05:14.907Z,38.38
2023-04-17T01:07:42.177Z,38.02
2023-04-17T01:10:09.635Z,38.05
2023-04-17T01:12:36.678Z,38.15
2023-04-17T01:15:05.848Z,38.25
2023-04-17T01:17:32.653Z,38.21
2023-04-17T01:19:59.600Z,38.22
2023-04-17T01:22:26.292Z,37.97
2023-04-17T01:24:57.157Z,37.96
2023-04-17T01:27:27.007Z,38.12
2023-04-17T01:29:54.038Z,38.20
2023-04-17T01:32:21.186Z,38.21
2023-04-17T01:34:47.778Z,38.21
2023-04-17T01:37:14.385Z,38.15
2023-04-17T01:39:41.110Z,37.79
2023-04-17T01:42:07.853Z,38.04
2023-04-17T01:44:34.504Z,37.89
2023-04-17T01:47:01.164Z,38.14
2023-04-17T01:49:28.029Z,38.00
2023-04-17T01:51:54.730Z,37.83
2023-04-17T01:54:21.486Z,38.15
2023-04-17T01:56:48.171Z,38.36
2023-04-17T01:59:14.725Z,38.12
2023-04-17T02:01:41.867Z,38.51
2023-04-17T02:04:08.936Z,38.51
2023-04-17T02:06:35.832Z,38.43
2023-04-17T02:09:04.057Z,38.40
2023-04-17T02:11:30.716Z,38.09
2023-04-17T02:13:57.288Z,38.56
2023-04-17T02:16:24.252Z,38.31
2023-04-17T02:18:51.823Z,38.52
2023-04-17T02:21:18.420Z,38.39
2023-04-17T02:23:45.013Z,38.78
2023-04-17T02:26:11.714Z,38.68
2023-04-17T02:28:38.691Z,38.84
2023-04-17T02:31:09.288Z,38.50
2023-04-17T02:33:36.754Z,38.77
2023-04-17T02:36:06.873Z,38.59
2023-04-17T02:38:42.186Z,38.86
2023-04-17T02:41:08.826Z,38.98
2023-04-17T02:43:35.425Z,38.71
2023-04-17T02:46:02.188Z,38.77
2023-04-17T02:48:28.757Z,39.35
2023-04-17T02:50:55.753Z,39.25
2023-04-17T02:53:22.696Z,39.69
2023-04-17T02:55:50.041Z,39.59
2023-04-17T02:58:19.432Z,39.69
2023-04-17T03:00:46.392Z,39.42
2023-04-17T03:03:16.432Z,39.73
2023-04-17T03:05:43.273Z,39.45
2023-04-17T03:08:09.895Z,39.75
2023-04-17T03:10:45.210Z,39.42
2023-04-17T03:13:12.063Z,39.79
2023-04-17T03:15:38.639Z,39.79
2023-04-17T03:18:05.417Z,39.52
2023-04-17T03:20:32.289Z,39.95
2023-04-17T03:22:59.054Z,39.64
2023-04-17T03:25:25.800Z,39.75
2023-04-17T03:27:52.934Z,39.91
2023-04-17T03:30:22.178Z,39.55
2023-04-17T03:32:51.415Z,39.99
2023-04-17T03:35:18.061Z,39.67
2023-04-17T03:37:45.001Z,39.53
2023-04-17T03:40:13.182Z,39.57
2023-04-17T03:42:40.446Z,39.73
2023-04-17T03:45:09.336Z,39.72
2023-04-17T03:47:36.153Z,39.48
2023-04-17T03:50:02.915Z,39.26
2023-04-17T03:52:35.592Z,39.13
2023-04-17T03:55:04.182Z,39.42
2023-04-17T03:57:30.737Z,39.12
2023-04-17T03:59:57.769Z,39.41
2023-04-17T04:02:24.920Z,39.25
2023-04-17T04:04:54.182Z,39.30
2023-04-17T04:07:21.498Z,39.36
2023-04-17T04:09:49.951Z,39.24
2023-04-17T04:12:17.902Z,39.20
2023-04-17T04:14:45.732Z,39.34
2023-04-17T04:17:15.780Z,39.43
2023-04-17T04:19:43.511Z,39.77
2023-04-17T04:22:10.374Z,40.16
2023-04-17T04:24:44.160Z,40.60
2023-04-17T04:27:18.148Z,40.86
2023-04-17T04:29:48.776Z,41.26
2023-04-17T04:32:18.905Z,41.54
2023-04-17T04:34:46.875Z,41.58
2023-04-17T04:37:15.361Z,41.64
2023-04-17T04:39:43.998Z,41.53
2023-04-17T04:42:22.000Z,41.42
2023-04-17T04:47:40.143Z,41.28
2023-04-17T04:50:08.596Z,41.35
2023-04-17T04:52:36.354Z,41.23
2023-04-17T04:55:09.532Z,40.90
2023-04-17T04:57:44.001Z,41.25
2023-04-17T05:00:14.483Z,41.34
2023-04-17T05:02:46.421Z,41.43
2023-04-17T05:05:16.212Z,41.45
2023-04-17T05:07:42.755Z,41.47
2023-04-17T05:10:12.682Z,41.58
2023-04-17T05:12:44.995Z,42.07
2023-04-17T05:15:13.831Z,41.97
2023-04-17T05:17:41.632Z,41.76
2023-04-17T05:20:12.307Z,41.97
2023-04-17T05:22:46.734Z,41.82
2023-04-17T05:25:14.095Z,41.41
2023-04-17T05:27:41.098Z,41.44
2023-04-17T05:30:08.759Z,41.07
2023-04-17T05:32:35.944Z,41.09
2023-04-17T05:35:24.141Z,40.80
2023-04-17T05:37:51.656Z,40.93
2023-04-17T05:40:18.462Z,40.86
2023-04-17T05:42:45.139Z,40.74
2023-04-17T05:45:15.328Z,40.64
2023-04-17T05:47:42.366Z,40.31
2023-04-17T05:50:09.441Z,40.28
2023-04-17T05:52:39.195Z,40.47
2023-04-17T05:55:08.835Z,40.14
2023-04-17T05:57:35.695Z,40.24
2023-04-17T06:00:08.576Z,40.15
2023-04-17T06:02:42.982Z,40.14
2023-04-17T06:05:14.806Z,39.92
2023-04-17T06:07:41.493Z,39.99
2023-04-17T06:10:11.689Z,39.73
2023-04-17T06:12:38.736Z,39.51
2023-04-17T06:15:11.918Z,39.41
2023-04-17T06:17:39.708Z,39.55
2023-04-17T06:20:10.384Z,39.56
2023-04-17T06:22:38.058Z,39.36
2023-04-17T06:25:05.948Z,39.35
2023-04-17T06:27:33.903Z,39.37
2023-04-17T06:30:03.603Z,39.42
2023-04-17T06:34:59.013Z,39.14
2023-04-17T06:37:41.607Z,38.96
2023-04-17T06:40:09.153Z,39.12
2023-04-17T06:42:35.858Z,38.92
2023-04-17T06:45:03.301Z,39.27
2023-04-17T06:47:29.929Z,39.20
2023-04-17T06:49:59.664Z,38.98
2023-04-17T06:52:26.593Z,39.18
2023-04-17T06:54:56.328Z,38.97
2023-04-17T06:57:22.924Z,38.70
2023-04-17T06:59:49.540Z,38.56
2023-04-17T07:02:16.581Z,38.57
2023-04-17T07:04:44.557Z,38.74
2023-04-17T07:07:11.480Z,38.58
2023-04-17T07:09:38.297Z,38.65
2023-04-17T07:12:04.888Z,38.62
2023-04-17T07:14:31.489Z,38.28
2023-04-17T07:17:01.304Z,38.40
2023-04-17T07:19:28.165Z,38.35
2023-04-17T07:21:54.699Z,38.23
2023-04-17T07:24:21.306Z,38.15
2023-04-17T07:26:49.445Z,38.26
2023-04-17T07:29:16.048Z,38.02
2023-04-17T07:31:42.898Z,38.14
2023-04-17T07:34:09.556Z,37.89
2023-04-17T07:36:37.047Z,37.91
2023-04-17T07:39:04.021Z,38.12
2023-04-17T07:41:30.650Z,37.99
2023-04-17T07:43:58.982Z,37.97
2023-04-17T07:46:26.202Z,37.36
2023-04-17T07:48:55.668Z,37.66
2023-04-17T07:51:22.202Z,37.71
2023-04-17T07:53:48.830Z,37.82
2023-04-17T07:56:15.364Z,37.61
2023-04-17T07:58:42.328Z,37.68
2023-04-17T08:01:08.982Z,37.48
2023-04-17T08:03:35.760Z,37.68
2023-04-17T08:06:02.449Z,37.74
2023-04-17T08:08:29.071Z,37.40
2023-04-17T08:10:55.623Z,37.32
2023-04-17T08:13:22.223Z,37.32
2023-04-17T08:15:49.143Z,37.49
2023-04-17T08:18:15.876Z,37.48
2023-04-17T08:20:42.885Z,37.45
2023-04-17T08:23:09.533Z,37.23
2023-04-17T08:25:36.097Z,37.25
2023-04-17T08:28:04.136Z,37.35
2023-04-17T08:30:31.031Z,37.44
2023-04-17T08:32:57.887Z,37.37
2023-04-17T08:35:25.400Z,37.13
2023-04-17T08:37:52.117Z,37.14
2023-04-17T08:40:21.417Z,37.04
2023-04-17T08:42:48.309Z,37.48
2023-04-17T08:45:15.024Z,37.08
2023-04-17T08:47:42.911Z,37.36
2023-04-17T08:50:20.619Z,37.34
2023-04-17T08:52:49.916Z,37.25
2023-04-17T08:55:19.325Z,36.80
2023-04-17T08:58:06.100Z,37.12
2023-04-17T09:00:38.507Z,36.99
2023-04-17T09:03:11.295Z,37.09
2023-04-17T09:05:43.320Z,37.07
2023-04-17T09:08:17.748Z,37.07
2023-04-17T09:10:47.160Z,37.22
2023-04-17T09:13:16.107Z,37.19
2023-04-17T09:15:44.275Z,37.17
2023-04-17T09:18:27.748Z,37.07
2023-04-17T09:20:54.526Z,37.28
2023-04-17T09:23:22.775Z,37.03
2023-04-17T09:26:09.949Z,37.29
2023-04-17T09:28:39.506Z,37.29
2023-04-17T09:31:26.470Z,37.33
2023-04-17T09:33:59.991Z,37.42
2023-04-17T09:36:28.498Z,37.17
2023-04-17T09:38:55.029Z,37.20
2023-04-17T09:41:33.238Z,37.11
2023-04-17T09:44:02.047Z,37.12
2023-04-17T09:46:45.652Z,37.53
2023-04-17T09:51:30.328Z,37.13
2023-04-17T09:53:59.155Z,37.27
2023-04-17T09:56:28.030Z,37.38
2023-04-17T09:58:54.879Z,37.05
2023-04-17T10:01:22.118Z,37.21
2023-04-17T10:03:49.831Z,37.38
2023-04-17T10:06:17.120Z,37.45
2023-04-17T10:08:43.843Z,37.22
2023-04-17T10:11:10.469Z,37.19
2023-04-17T10:13:38.702Z,37.21
2023-04-17T10:16:06.357Z,37.33
2023-04-17T10:18:32.946Z,37.20
2023-04-17T10:21:21.798Z,37.18
2023-04-17T10:23:49.149Z,36.92
2023-04-17T10:26:24.926Z,36.99
2023-04-17T10:28:53.429Z,37.14
2023-04-17T10:31:21.068Z,37.15
2023-04-17T10:33:49.333Z,37.07
2023-04-17T10:36:37.836Z,36.98
2023-04-17T10:39:18.219Z,37.08
2023-04-17T10:42:05.770Z,36.81
2023-04-17T10:44:34.149Z,36.94
2023-04-17T10:47:08.039Z,36.99
2023-04-17T10:49:59.828Z,36.76
2023-04-17T10:52:32.206Z,36.88
2023-04-17T10:55:07.928Z,36.99
2023-04-17T10:57:59.762Z,37.17
2023-04-17T11:00:36.783Z,37.07
2023-04-17T11:03:04.992Z,36.76
2023-04-17T11:05:32.561Z,36.91
2023-04-17T11:07:59.508Z,37.03
2023-04-17T11:10:26.617Z,36.94
2023-04-17T11:12:55.531Z,36.64
2023-04-17T11:15:34.291Z,36.68
2023-04-17T11:18:02.647Z,36.67
2023-04-17T11:20:35.881Z,36.96
2023-04-17T11:23:04.042Z,36.48
2023-04-17T11:25:31.850Z,36.78
2023-04-17T11:28:04.982Z,36.38
2023-04-17T11:30:33.979Z,36.58
2023-04-17T11:33:03.161Z,36.57
2023-04-17T11:35:38.318Z,36.41
2023-04-17T11:38:21.129Z,36.19
2023-04-17T11:40:54.023Z,36.57
2023-04-17T11:43:21.247Z,36.24
2023-04-17T11:45:51.029Z,36.31
2023-04-17T11:48:23.033Z,36.17
2023-04-17T11:50:49.706Z,36.47
2023-04-17T11:53:17.089Z,36.13
2023-04-17T11:55:44.649Z,36.18
2023-04-17T11:58:12.802Z,36.41
2023-04-17T12:00:40.673Z,36.25
2023-04-17T12:03:36.040Z,36.22
2023-04-17T12:06:05.210Z,36.44
2023-04-17T12:08:41.812Z,36.31
2023-04-17T12:11:15.330Z,35.95
2023-04-17T12:13:41.863Z,36.04
2023-04-17T12:16:08.409Z,36.21
2023-04-17T12:18:35.041Z,36.06
2023-04-17T12:21:01.702Z,36.37
2023-04-17T12:23:28.363Z,35.99
2023-04-17T12:25:54.902Z,36.20
2023-04-17T12:28:22.139Z,36.20
2023-04-17T12:30:48.696Z,36.26
2023-04-17T12:33:15.429Z,35.97
2023-04-17T12:35:42.008Z,36.02
2023-04-17T12:38:08.593Z,36.20
2023-04-17T12:40:35.239Z,36.17
2023-04-17T12:43:01.957Z,36.15
2023-04-17T12:45:28.547Z,35.85
2023-04-17T12:47:55.208Z,36.05
2023-04-17T12:50:21.851Z,35.98
2023-04-17T12:52:48.407Z,36.02
2023-04-17T12:55:14.903Z,36.04
2023-04-17T12:57:41.609Z,36.12
2023-04-17T13:00:09.374Z,35.83
2023-04-17T13:02:36.558Z,36.08
2023-04-17T13:05:06.083Z,35.92
2023-04-17T13:07:35.877Z,36.07
2023-04-17T13:10:02.424Z,35.75
2023-04-17T13:12:29.436Z,36.12
2023-04-17T13:14:57.486Z,36.03
2023-04-17T13:17:24.863Z,35.77
2023-04-17T13:19:53.889Z,36.20
2023-04-17T13:22:20.611Z,36.11
2023-04-17T13:24:47.148Z,36.01
2023-04-17T13:27:13.749Z,35.94
2023-04-17T13:29:40.353Z,36.14
2023-04-17T13:32:06.983Z,36.24
2023-04-17T13:34:33.653Z,36.11
2023-04-17T13:37:02.937Z,36.16
2023-04-17T13:39:29.576Z,36.00
2023-04-17T13:41:58.123Z,36.04
2023-04-17T13:44:25.476Z,36.13
2023-04-17T13:46:55.450Z,36.30
2023-04-17T13:49:22.048Z,36.42
2023-04-17T13:51:48.562Z,36.52
2023-04-17T13:54:15.140Z,36.28
2023-04-17T13:56:42.330Z,36.51
2023-04-17T13:59:10.340Z,36.26
2023-04-17T14:01:37.281Z,36.28
2023-04-17T14:04:04.562Z,36.51
2023-04-17T14:06:35.857Z,36.27
2023-04-17T14:09:02.642Z,36.34
2023-04-17T14:11:29.608Z,36.40
2023-04-17T14:13:56.333Z,36.36
2023-04-17T14:16:23.384Z,36.56
2023-04-17T14:18:50.181Z,36.50
2023-04-17T14:21:17.798Z,36.61
2023-04-17T14:23:45.277Z,36.69
2023-04-17T14:26:12.524Z,36.73
2023-04-17T14:28:39.135Z,37.04
2023-04-17T14:31:06.637Z,36.84
2023-04-17T14:33:36.296Z,36.83
2023-04-17T14:36:05.186Z,37.04
2023-04-17T14:38:33.549Z,37.28
2023-04-17T14:41:00.261Z,37.13
2023-04-17T14:43:26.836Z,37.14
2023-04-17T14:45:53.468Z,37.00
2023-04-17T14:48:20.906Z,37.32
2023-04-17T14:50:47.487Z,37.44
2023-04-17T14:53:14.078Z,37.36
2023-04-17T14:55:41.076Z,37.09
2023-04-17T14:58:07.895Z,37.40
2023-04-17T15:00:34.538Z,37.38
2023-04-17T15:03:01.343Z,37.27
2023-04-17T15:05:28.062Z,36.97
2023-04-17T15:07:54.706Z,36.97
2023-04-17T15:10:21.439Z,37.21
2023-04-17T15:12:48.138Z,37.06
2023-04-17T15:15:14.659Z,37.15
2023-04-17T15:17:41.419Z,37.04
2023-04-17T15:20:08.572Z,37.20
2023-04-17T15:22:35.143Z,36.94
2023-04-17T15:25:01.916Z,37.29
2023-04-17T15:27:28.532Z,37.02
2023-04-17T15:29:55.167Z,37.24
2023-04-17T15:32:21.907Z,37.20
2023-04-17T15:34:48.579Z,37.50
2023-04-17T15:37:15.197Z,37.71
2023-04-17T15:39:41.937Z,38.06
2023-04-17T15:42:09.791Z,38.57
2023-04-17T15:44:37.627Z,38.58
2023-04-17T15:47:05.672Z,38.82
2023-04-17T15:49:33.736Z,38.81
2023-04-17T15:52:00.355Z,38.67
2023-04-17T15:54:27.015Z,38.76
2023-04-17T15:56:53.898Z,38.92
2023-04-17T15:59:20.728Z,39.41
2023-04-17T16:01:48.177Z,39.78
2023-04-17T16:04:15.289Z,39.77
2023-04-17T16:06:42.024Z,39.84
2023-04-17T16:09:09.751Z,40.11
2023-04-17T16:11:36.451Z,40.04
2023-04-17T16:14:03.128Z,40.43
2023-04-17T16:16:29.843Z,40.15
2023-04-17T16:18:57.159Z,40.16
2023-04-17T16:21:23.750Z,40.11
2023-04-17T16:23:50.344Z,40.14
2023-04-17T16:26:16.905Z,39.84
2023-04-17T16:28:45.624Z,40.16
2023-04-17T16:31:12.820Z,39.99
2023-04-17T16:33:40.690Z,39.83
2023-04-17T16:36:07.821Z,40.25
2023-04-17T16:38:35.547Z,39.90
2023-04-17T16:41:03.487Z,40.28
2023-04-17T16:43:31.032Z,40.25
2023-04-17T16:45:58.486Z,40.42
2023-04-17T16:48:27.087Z,40.07
2023-04-17T16:50:53.833Z,40.51
2023-04-17T16:53:21.282Z,40.18
2023-04-17T16:55:48.223Z,40.85
2023-04-17T16:58:14.800Z,41.07
2023-04-17T17:00:41.452Z,41.00
2023-04-17T17:03:08.107Z,40.62
2023-04-17T17:05:34.792Z,40.49
2023-04-17T17:08:01.490Z,40.66
2023-04-17T17:10:28.115Z,40.74
2023-04-17T17:12:54.664Z,40.91
2023-04-17T17:15:21.982Z,41.19
2023-04-17T17:17:50.759Z,41.35
2023-04-17T17:20:17.743Z,41.80
2023-04-17T17:22:44.278Z,41.83
2023-04-17T17:25:11.228Z,41.94
2023-04-17T17:27:37.764Z,42.15
2023-04-17T17:30:05.028Z,42.27
2023-04-17T17:32:31.718Z,42.32
2023-04-17T17:34:58.886Z,42.43
2023-04-17T17:37:27.056Z,42.42
2023-04-17T17:39:54.288Z,41.63
2023-04-17T17:42:20.860Z,41.34
2023-04-17T17:44:48.723Z,41.34
2023-04-17T17:47:15.633Z,40.93
2023-04-17T17:49:42.339Z,40.93
2023-04-17T17:52:10.044Z,40.72
2023-04-17T17:54:37.824Z,40.83
2023-04-17T17:57:06.143Z,40.71
2023-04-17T17:59:33.246Z,40.57
2023-04-17T18:02:01.846Z,40.71
2023-04-17T18:04:29.025Z,40.37
2023-04-17T18:06:55.796Z,40.29
2023-04-17T18:09:22.577Z,40.65
2023-04-17T18:11:49.202Z,41.31
2023-04-17T18:14:15.944Z,41.25
2023-04-17T18:16:43.052Z,41.84
2023-04-17T18:19:09.850Z,41.84
2023-04-17T18:21:36.489Z,41.73
2023-04-17T18:24:03.351Z,41.66
2023-04-17T18:26:29.956Z,41.57
2023-04-17T18:28:59.695Z,41.42
2023-04-17T18:31:28.172Z,41.63
2023-04-17T18:33:56.065Z,41.64
2023-04-17T18:36:23.164Z,41.21
2023-04-17T18:38:49.817Z,41.32
2023-04-17T18:41:16.798Z,41.31
2023-04-17T18:43:44.602Z,41.28
2023-04-17T18:46:14.394Z,41.40
2023-04-17T18:48:42.437Z,41.39
2023-04-17T18:51:15.919Z,41.00
2023-04-17T18:53:44.038Z,40.81
2023-04-17T18:56:15.739Z,41.07
2023-04-17T18:58:43.173Z,40.99
2023-04-17T19:01:10.729Z,40.85
2023-04-17T19:03:39.663Z,40.70
2023-04-17T19:06:06.852Z,40.58
2023-04-17T19:08:34.924Z,40.70
2023-04-17T19:11:06.415Z,40.32
2023-04-17T19:13:35.544Z,40.25
2023-04-17T19:16:02.165Z,40.43
2023-04-17T19:18:29.198Z,40.35
2023-04-17T19:20:56.196Z,40.21
2023-04-17T19:23:22.967Z,40.51
2023-04-17T19:25:56.312Z,40.81
2023-04-17T19:28:26.823Z,40.78
2023-04-17T19:31:03.647Z,41.12
2023-04-17T19:33:32.124Z,40.98
2023-04-17T19:36:07.840Z,41.24
2023-04-17T19:38:34.752Z,41.24
2023-04-17T19:41:17.685Z,41.34
2023-04-17T19:43:52.790Z,41.15
2023-04-17T19:46:23.838Z,40.85
2023-04-17T19:48:53.915Z,40.86
2023-04-17T19:51:21.136Z,40.63
2023-04-17T19:53:48.377Z,40.54
2023-04-17T19:56:15.566Z,40.52
2023-04-17T19:58:42.573Z,40.64
2023-04-17T20:01:10.356Z,40.45
2023-04-17T20:03:39.431Z,40.53
2023-04-17T20:06:06.668Z,40.43
2023-04-17T20:08:33.620Z,40.08
2023-04-17T20:11:00.863Z,40.14
2023-04-17T20:13:30.279Z,40.10
2023-04-17T20:15:57.026Z,40.18
2023-04-17T20:20:46.691Z,40.32
2023-04-17T20:23:14.502Z,39.91
2023-04-17T20:25:41.052Z,40.25
2023-04-17T20:28:07.883Z,39.96
2023-04-17T20:30:34.470Z,40.02
2023-04-17T20:33:01.587Z,39.97
2023-04-17T20:35:28.479Z,39.88
2023-04-17T20:37:57.183Z,39.81
2023-04-17T20:40:23.739Z,39.68
2023-04-17T20:42:51.291Z,39.79
2023-04-17T20:45:17.862Z,39.72
2023-04-17T20:47:56.568Z,39.74
2023-04-17T20:50:24.230Z,39.69
2023-04-17T20:52:50.941Z,39.56
2023-04-17T20:55:19.656Z,39.71
2023-04-17T20:57:46.687Z,39.44
2023-04-17T21:00:14.034Z,39.66
2023-04-17T21:02:40.974Z,39.72
2023-04-17T21:05:08.589Z,39.77
2023-04-17T21:07:37.661Z,39.53
2023-04-17T21:10:04.562Z,39.49
2023-04-17T21:12:32.972Z,39.33
2023-04-17T21:14:59.671Z,39.54
2023-04-17T21:17:26.341Z,39.55
2023-04-17T21:19:56.255Z,39.66
2023-04-17T21:22:26.089Z,39.41
2023-04-17T21:24:52.599Z,39.63
2023-04-17T21:27:19.165Z,39.56
2023-04-17T21:29:47.097Z,39.56
2023-04-17T21:32:13.889Z,39.35
2023-04-17T21:34:40.534Z,39.31
2023-04-17T21:37:07.220Z,39.59
2023-04-17T21:39:33.780Z,39.44
2023-04-17T21:42:01.799Z,39.34
2023-04-17T21:44:28.527Z,39.15
2023-04-17T21:46:55.189Z,39.42
2023-04-17T21:49:22.769Z,39.36
2023-04-17T21:51:49.378Z,39.51
2023-04-17T21:54:16.059Z,39.27
2023-04-17T21:56:42.757Z,39.57
2023-04-17T21:59:09.591Z,39.35
2023-04-17T22:01:36.314Z,39.28
2023-04-17T22:04:03.409Z,39.52
2023-04-17T22:06:30.007Z,39.29
2023-04-17T22:08:56.499Z,39.32
2023-04-17T22:11:23.091Z,39.21
2023-04-17T22:13:49.648Z,39.16
2023-04-17T22:16:16.274Z,39.43
2023-04-17T22:18:43.034Z,39.36
2023-04-17T22:22:06.119Z,39.47
2023-04-17T22:25:47.895Z,39.28
2023-04-17T22:29:29.525Z,39.23
2023-04-17T22:33:11.452Z,39.27
2023-04-17T22:36:55.518Z,39.28
2023-04-17T22:40:37.289Z,39.24
2023-04-17T22:44:18.771Z,39.15
2023-04-17T22:48:00.565Z,39.37
2023-04-17T22:51:42.237Z,39.42
2023-04-17T22:55:25.988Z,39.36
2023-04-17T22:59:07.678Z,39.29
2023-04-17T23:02:49.446Z,39.02
2023-04-17T23:06:31.357Z,39.23
2023-04-17T23:09:16.624Z,39.15
2023-04-17T23:11:43.199Z,39.06
2023-04-17T23:14:11.201Z,39.07
2023-04-17T23:16:38.027Z,38.91
2023-04-17T23:19:07.498Z,39.13
2023-04-17T23:21:34.057Z,38.90
2023-04-17T23:24:00.598Z,38.78
2023-04-17T23:26:27.227Z,38.78
2023-04-17T23:28:53.818Z,39.02
2023-04-17T23:31:20.487Z,38.74
2023-04-17T23:33:47.043Z,38.99
2023-04-17T23:36:13.677Z,38.97
2023-04-17T23:38:40.431Z,38.88
2023-04-17T23:41:07.007Z,38.87
2023-04-17T23:43:33.550Z,38.91
2023-04-17T23:46:00.854Z,38.75
2023-04-17T23:48:28.098Z,38.74
2023-04-17T23:50:55.038Z,38.51
2023-04-17T23:53:21.617Z,38.93
2023-04-17T23:55:48.244Z,38.79
2023-04-17T23:58:14.798Z,38.87
